createdAt,value
2022-08-31T00:00:15.196Z,99.90
2022-08-31T00:03:01.036Z,99.90
2022-08-31T00:05:28.503Z,99.90
2022-08-31T00:07:55.866Z,99.90
2022-08-31T00:10:37.046Z,99.90
2022-08-31T00:13:06.761Z,99.90
2022-08-31T00:15:35.539Z,99.90
2022-08-31T00:18:02.932Z,99.90
2022-08-31T00:20:33.749Z,99.90
2022-08-31T00:23:03.925Z,99.90
2022-08-31T00:25:31.553Z,99.90
2022-08-31T00:27:58.681Z,99.90
2022-08-31T00:30:26.649Z,99.90
2022-08-31T00:32:54.204Z,99.90
2022-08-31T00:35:27.909Z,99.90
2022-08-31T00:37:55.882Z,99.90
2022-08-31T00:40:24.521Z,99.90
2022-08-31T00:42:52.503Z,99.90
2022-08-31T00:45:27.746Z,99.90
2022-08-31T00:47:55.356Z,99.90
2022-08-31T00:50:24.648Z,99.90
2022-08-31T00:52:57.118Z,99.90
2022-08-31T00:55:35.536Z,99.90
2022-08-31T00:58:10.740Z,99.90
2022-08-31T01:00:38.248Z,99.90
2022-08-31T01:03:07.224Z,99.90
2022-08-31T01:05:35.999Z,99.90
2022-08-31T01:08:04.519Z,99.90
2022-08-31T01:10:37.241Z,99.90
2022-08-31T01:13:05.449Z,99.90
2022-08-31T01:15:33.512Z,99.90
2022-08-31T01:18:03.653Z,99.90
2022-08-31T01:20:48.924Z,99.90
2022-08-31T01:23:19.444Z,99.90
2022-08-31T01:25:49.144Z,99.90
2022-08-31T01:28:21.138Z,99.90
2022-08-31T01:31:03.360Z,99.90
2022-08-31T01:33:31.281Z,99.90
2022-08-31T01:35:59.476Z,99.90
2022-08-31T01:38:27.177Z,99.90
2022-08-31T01:40:57.398Z,99.90
2022-08-31T01:43:25.584Z,99.90
2022-08-31T01:45:52.945Z,99.90
2022-08-31T01:48:20.939Z,99.90
2022-08-31T01:50:48.098Z,99.90
2022-08-31T01:53:15.815Z,99.90
2022-08-31T01:55:43.253Z,99.90
2022-08-31T01:58:10.545Z,99.90
2022-08-31T02:00:37.825Z,99.90
2022-08-31T02:03:08.092Z,99.90
2022-08-31T02:05:36.273Z,99.90
2022-08-31T02:08:05.495Z,99.90
2022-08-31T02:10:33.344Z,99.90
2022-08-31T02:13:09.911Z,99.90
2022-08-31T02:15:38.387Z,99.90
2022-08-31T02:18:06.269Z,99.90
2022-08-31T02:20:33.580Z,99.90
2022-08-31T02:23:03.569Z,99.90
2022-08-31T02:25:31.642Z,99.90
2022-08-31T02:27:58.875Z,99.90
2022-08-31T02:30:26.331Z,99.90
2022-08-31T02:32:53.652Z,99.90
2022-08-31T02:35:21.112Z,99.90
2022-08-31T02:37:48.540Z,99.90
2022-08-31T02:40:16.747Z,99.90
2022-08-31T02:42:53.946Z,99.90
2022-08-31T02:45:22.919Z,99.90
2022-08-31T02:47:50.381Z,99.90
2022-08-31T02:50:18.633Z,99.90
2022-08-31T02:52:47.217Z,99.90
2022-08-31T02:55:14.567Z,99.90
2022-08-31T02:57:41.664Z,99.90
2022-08-31T03:00:10.328Z,99.90
2022-08-31T03:02:37.753Z,99.90
2022-08-31T03:05:08.814Z,99.90
2022-08-31T03:07:36.825Z,99.90
2022-08-31T03:10:06.296Z,99.90
2022-08-31T03:12:33.463Z,99.90
2022-08-31T03:15:00.830Z,99.90
2022-08-31T03:17:27.985Z,99.90
2022-08-31T03:20:01.123Z,99.90
2022-08-31T03:22:29.043Z,99.90
2022-08-31T03:24:56.633Z,99.90
2022-08-31T03:27:24.789Z,99.90
2022-08-31T03:29:53.670Z,99.90
2022-08-31T03:32:22.242Z,99.90
2022-08-31T03:34:56.560Z,99.90
2022-08-31T03:37:24.614Z,99.90
2022-08-31T03:39:52.543Z,99.90
2022-08-31T03:42:20.076Z,99.90
2022-08-31T03:44:48.103Z,99.90
2022-08-31T03:47:16.956Z,99.90
2022-08-31T03:49:44.657Z,99.90
2022-08-31T03:52:12.368Z,99.90
2022-08-31T03:54:39.869Z,99.90
2022-08-31T03:57:08.173Z,99.90
2022-08-31T03:59:35.432Z,99.90
2022-08-31T04:02:02.974Z,99.90
2022-08-31T04:04:30.146Z,99.90
2022-08-31T04:06:57.401Z,99.90
2022-08-31T04:09:24.489Z,99.90
2022-08-31T04:11:52.206Z,99.90
2022-08-31T04:14:19.498Z,99.90
2022-08-31T04:16:46.736Z,99.90
2022-08-31T04:19:16.225Z,99.90
2022-08-31T04:21:44.557Z,99.90
2022-08-31T04:24:12.571Z,99.90
2022-08-31T04:26:43.399Z,99.90
2022-08-31T04:29:13.661Z,99.90
2022-08-31T04:31:41.306Z,99.90
2022-08-31T04:34:10.684Z,99.90
2022-08-31T04:36:38.311Z,99.90
2022-08-31T04:39:07.539Z,99.90
2022-08-31T04:41:38.822Z,99.90
2022-08-31T04:44:06.281Z,99.90
2022-08-31T04:46:36.358Z,99.90
2022-08-31T04:49:04.142Z,99.90
2022-08-31T04:51:35.592Z,99.90
2022-08-31T04:54:06.349Z,99.90
2022-08-31T04:56:35.628Z,99.90
2022-08-31T04:59:08.640Z,99.90
2022-08-31T05:01:42.982Z,99.90
2022-08-31T05:04:17.343Z,99.90
2022-08-31T05:06:46.721Z,99.90
2022-08-31T05:09:19.742Z,99.90
2022-08-31T05:11:47.338Z,99.90
2022-08-31T05:14:14.971Z,99.90
2022-08-31T05:16:43.560Z,99.90
2022-08-31T05:19:11.231Z,99.90
2022-08-31T05:21:41.716Z,99.90
2022-08-31T05:24:18.836Z,99.90
2022-08-31T05:26:52.536Z,99.90
2022-08-31T05:29:22.627Z,99.90
2022-08-31T05:31:52.683Z,99.90
2022-08-31T05:34:21.742Z,99.90
2022-08-31T05:36:55.344Z,99.90
2022-08-31T05:39:22.986Z,99.90
2022-08-31T05:41:53.187Z,99.90
2022-08-31T05:44:22.784Z,99.90
2022-08-31T05:46:57.626Z,99.90
2022-08-31T05:49:32.351Z,99.90
2022-08-31T05:52:01.069Z,99.90
2022-08-31T05:54:54.624Z,99.90
2022-08-31T05:57:23.326Z,99.90
2022-08-31T05:59:53.200Z,99.90
2022-08-31T06:02:20.392Z,99.90
2022-08-31T06:04:47.600Z,99.90
2022-08-31T06:07:19.262Z,99.90
2022-08-31T06:09:46.584Z,99.90
2022-08-31T06:12:17.047Z,99.90
2022-08-31T06:14:46.357Z,99.90
2022-08-31T06:17:17.577Z,99.90
2022-08-31T06:19:45.034Z,99.90
2022-08-31T06:22:12.203Z,99.90
2022-08-31T06:24:39.496Z,99.90
2022-08-31T06:27:07.500Z,99.90
2022-08-31T06:29:35.991Z,99.90
2022-08-31T06:32:08.302Z,99.90
2022-08-31T06:34:36.602Z,99.90
2022-08-31T06:37:05.370Z,99.90
2022-08-31T06:39:32.924Z,99.90
2022-08-31T06:42:00.344Z,99.90
2022-08-31T06:44:27.732Z,99.90
2022-08-31T06:46:54.919Z,99.90
2022-08-31T06:49:23.436Z,99.90
2022-08-31T06:51:51.125Z,99.90
2022-08-31T06:54:34.988Z,99.90
2022-08-31T06:57:03.032Z,99.90
2022-08-31T06:59:30.369Z,99.90
2022-08-31T07:01:59.325Z,99.90
2022-08-31T07:04:27.653Z,99.90
2022-08-31T07:06:55.241Z,99.90
2022-08-31T07:09:30.672Z,99.90
2022-08-31T07:11:57.843Z,99.90
2022-08-31T07:14:26.941Z,99.90
2022-08-31T07:16:56.837Z,99.90
2022-08-31T07:19:24.823Z,99.90
2022-08-31T07:21:57.559Z,99.90
2022-08-31T07:24:29.310Z,99.90
2022-08-31T07:27:04.555Z,99.90
2022-08-31T07:29:40.578Z,99.90
2022-08-31T07:32:13.370Z,99.90
2022-08-31T07:34:41.027Z,99.90
2022-08-31T07:37:26.716Z,99.90
2022-08-31T07:40:13.381Z,99.90
2022-08-31T07:42:44.697Z,99.90
2022-08-31T07:45:20.161Z,99.90
2022-08-31T07:47:51.869Z,99.90
2022-08-31T07:50:20.754Z,99.90
2022-08-31T07:52:54.135Z,99.90
2022-08-31T07:55:23.512Z,99.90
2022-08-31T07:57:53.491Z,99.90
2022-08-31T08:00:30.006Z,99.90
2022-08-31T08:03:08.015Z,99.90
2022-08-31T08:05:38.933Z,99.90
2022-08-31T08:08:13.478Z,99.90
2022-08-31T08:10:43.885Z,99.90
2022-08-31T08:13:15.649Z,99.90
2022-08-31T08:15:42.945Z,99.90
2022-08-31T08:18:12.389Z,99.90
2022-08-31T08:20:40.490Z,99.90
2022-08-31T08:23:18.060Z,99.90
2022-08-31T08:25:57.783Z,99.90
2022-08-31T08:28:46.223Z,99.90
2022-08-31T08:31:19.754Z,99.90
2022-08-31T08:33:47.248Z,99.90
2022-08-31T08:36:16.800Z,99.90
2022-08-31T08:38:46.381Z,99.90
2022-08-31T08:41:20.686Z,99.90
2022-08-31T08:43:57.651Z,99.90
2022-08-31T08:47:37.652Z,99.90
2022-08-31T08:49:37.876Z,99.90
2022-08-31T08:52:15.817Z,99.90
2022-08-31T08:54:47.194Z,99.90
2022-08-31T08:57:38.281Z,99.90
2022-08-31T09:00:14.929Z,99.90
2022-08-31T09:02:47.143Z,99.90
2022-08-31T09:05:38.260Z,99.90
2022-08-31T09:08:44.077Z,99.90
2022-08-31T09:11:53.214Z,99.90
2022-08-31T09:14:36.588Z,99.90
2022-08-31T09:17:06.352Z,99.90
2022-08-31T09:19:56.405Z,99.90
2022-08-31T09:22:23.484Z,99.90
2022-08-31T09:24:53.146Z,99.90
2022-08-31T09:27:46.813Z,99.90
2022-08-31T09:30:34.199Z,99.90
2022-08-31T09:33:01.663Z,99.90
2022-08-31T09:35:40.616Z,99.90
2022-08-31T09:38:26.849Z,99.90
2022-08-31T09:40:54.352Z,99.90
2022-08-31T09:43:35.318Z,99.90
2022-08-31T09:46:12.125Z,99.90
2022-08-31T09:48:43.567Z,99.90
2022-08-31T09:51:20.707Z,99.90
2022-08-31T09:54:06.886Z,99.90
2022-08-31T09:56:57.346Z,99.90
2022-08-31T09:59:56.111Z,99.90
2022-08-31T10:02:26.318Z,99.90
2022-08-31T10:04:56.346Z,99.90
2022-08-31T10:07:25.063Z,99.90
2022-08-31T10:10:08.383Z,99.90
2022-08-31T10:13:06.334Z,99.90
2022-08-31T10:15:43.589Z,99.90
2022-08-31T10:18:39.725Z,99.90
2022-08-31T10:21:13.270Z,99.90
2022-08-31T10:23:54.174Z,99.90
2022-08-31T10:26:36.153Z,99.90
2022-08-31T10:29:17.907Z,99.90
2022-08-31T10:31:55.418Z,99.90
2022-08-31T10:37:44.007Z,99.90
2022-08-31T10:40:24.942Z,99.90
2022-08-31T10:43:09.569Z,99.90
2022-08-31T10:45:44.046Z,99.90
2022-08-31T10:48:13.195Z,99.90
2022-08-31T10:50:54.613Z,99.90
2022-08-31T10:53:39.703Z,99.90
2022-08-31T10:56:27.481Z,99.90
2022-08-31T10:59:16.158Z,99.90
2022-08-31T11:02:03.768Z,99.90
2022-08-31T11:04:58.683Z,99.90
2022-08-31T11:07:41.023Z,99.90
2022-08-31T11:10:26.450Z,99.90
2022-08-31T11:12:59.202Z,99.90
2022-08-31T11:15:49.525Z,99.90
2022-08-31T11:19:09.266Z,99.90
2022-08-31T11:22:01.123Z,99.90
2022-08-31T11:24:48.897Z,99.90
2022-08-31T11:27:33.660Z,99.90
2022-08-31T11:30:25.111Z,99.90
2022-08-31T11:32:55.720Z,99.90
2022-08-31T11:35:57.439Z,99.90
2022-08-31T11:38:56.560Z,99.90
2022-08-31T11:41:48.651Z,99.90
2022-08-31T11:44:34.708Z,99.90
2022-08-31T11:47:28.164Z,99.90
2022-08-31T11:50:06.269Z,99.90
2022-08-31T11:53:00.479Z,99.90
2022-08-31T11:55:45.490Z,99.90
2022-08-31T11:58:33.851Z,99.90
2022-08-31T12:01:09.726Z,99.90
2022-08-31T12:03:37.211Z,99.90
2022-08-31T12:06:08.669Z,99.90
2022-08-31T12:08:57.630Z,99.90
2022-08-31T12:11:41.950Z,99.90
2022-08-31T12:14:38.152Z,99.90
2022-08-31T12:17:47.159Z,99.90
2022-08-31T12:21:08.088Z,99.90
2022-08-31T12:24:13.332Z,99.90
2022-08-31T12:27:32.756Z,99.90
2022-08-31T12:30:14.363Z,99.90
2022-08-31T12:32:49.293Z,99.90
2022-08-31T12:35:18.477Z,99.90
2022-08-31T12:37:45.950Z,99.90
2022-08-31T12:40:18.216Z,99.90
2022-08-31T12:43:06.004Z,99.90
2022-08-31T12:45:57.694Z,99.90
2022-08-31T12:48:38.694Z,99.90
2022-08-31T12:51:40.259Z,99.90
2022-08-31T12:54:40.369Z,99.90
2022-08-31T12:57:07.520Z,99.90
2022-08-31T13:00:06.110Z,99.90
2022-08-31T13:02:38.370Z,99.90
2022-08-31T13:05:28.540Z,99.90
2022-08-31T13:07:56.272Z,98.40
2022-08-31T13:10:30.477Z,94.10
2022-08-31T13:13:09.929Z,81.60
2022-08-31T13:15:40.064Z,56.50
2022-08-31T13:18:28.895Z,50.00
2022-08-31T13:21:05.876Z,53.30
2022-08-31T13:23:42.010Z,45.60
2022-08-31T13:26:19.908Z,39.00
2022-08-31T13:28:51.489Z,46.20
2022-08-31T13:31:25.044Z,55.30
2022-08-31T13:33:57.090Z,62.20
2022-08-31T13:36:32.520Z,67.00
2022-08-31T13:39:11.735Z,65.10
2022-08-31T13:41:56.181Z,68.40
2022-08-31T13:44:38.558Z,67.70
2022-08-31T13:47:21.376Z,57.30
2022-08-31T13:49:53.418Z,47.20
2022-08-31T13:52:27.847Z,41.30
2022-08-31T13:55:06.287Z,46.10
2022-08-31T13:57:38.465Z,39.10
2022-08-31T14:00:43.677Z,39.00
2022-08-31T14:03:45.242Z,54.30
2022-08-31T14:06:24.645Z,52.20
2022-08-31T14:09:05.310Z,55.00
2022-08-31T14:11:35.754Z,44.10
2022-08-31T14:14:07.503Z,46.60
2022-08-31T14:16:43.526Z,59.70
2022-08-31T14:19:13.407Z,64.70
2022-08-31T14:21:42.322Z,52.80
2022-08-31T14:24:12.447Z,51.50
2022-08-31T14:26:42.622Z,56.50
2022-08-31T14:29:12.984Z,51.10
2022-08-31T14:31:52.492Z,59.20
2022-08-31T14:34:24.909Z,68.90
2022-08-31T14:37:11.017Z,69.40
2022-08-31T14:39:46.185Z,73.20
2022-08-31T14:42:18.405Z,76.40
2022-08-31T14:44:58.470Z,78.20
2022-08-31T14:47:29.187Z,81.70
2022-08-31T14:50:06.625Z,84.80
2022-08-31T14:52:39.414Z,87.60
2022-08-31T14:55:09.307Z,84.50
2022-08-31T14:57:40.084Z,84.10
2022-08-31T15:00:08.542Z,81.60
2022-08-31T15:02:35.913Z,80.80
2022-08-31T15:05:06.937Z,83.00
2022-08-31T15:07:36.730Z,83.70
2022-08-31T15:10:07.247Z,87.20
2022-08-31T15:12:35.899Z,88.70
2022-08-31T15:15:03.473Z,87.30
2022-08-31T15:17:33.976Z,90.70
2022-08-31T15:20:03.700Z,92.60
2022-08-31T15:22:33.377Z,90.60
2022-08-31T15:25:01.412Z,90.30
2022-08-31T15:27:32.101Z,88.80
2022-08-31T15:30:02.750Z,86.60
2022-08-31T15:32:31.854Z,86.20
2022-08-31T15:34:59.076Z,86.80
2022-08-31T15:37:31.988Z,84.80
2022-08-31T15:40:00.530Z,87.50
2022-08-31T15:42:29.674Z,85.30
2022-08-31T15:44:57.459Z,87.70
2022-08-31T15:47:49.736Z,85.80
2022-08-31T15:50:19.579Z,90.40
2022-08-31T15:52:51.219Z,92.50
2022-08-31T15:55:26.718Z,93.40
2022-08-31T15:57:58.445Z,91.70
2022-08-31T16:00:32.615Z,93.80
2022-08-31T16:03:02.244Z,95.70
2022-08-31T16:08:28.833Z,97.20
2022-08-31T16:10:56.206Z,97.40
2022-08-31T16:19:40.466Z,99.60
2022-08-31T16:22:08.621Z,99.90
2022-08-31T16:24:56.256Z,99.90
2022-08-31T16:27:26.978Z,99.90
2022-08-31T16:29:54.420Z,99.90
2022-08-31T16:32:22.330Z,99.90
2022-08-31T16:34:49.913Z,99.90
2022-08-31T16:37:21.472Z,99.90
2022-08-31T16:39:50.876Z,99.90
2022-08-31T16:42:20.111Z,98.00
2022-08-31T16:44:49.226Z,96.70
2022-08-31T16:47:20.069Z,95.60
2022-08-31T16:49:52.285Z,94.60
2022-08-31T16:52:27.733Z,93.20
2022-08-31T16:54:57.616Z,91.70
2022-08-31T16:57:33.406Z,91.80
2022-08-31T17:00:05.189Z,91.00
2022-08-31T17:02:41.235Z,92.10
2022-08-31T17:05:10.058Z,90.70
2022-08-31T17:07:43.569Z,91.10
2022-08-31T17:10:15.209Z,90.90
2022-08-31T17:12:46.649Z,92.30
2022-08-31T17:15:17.396Z,89.20
2022-08-31T17:17:50.579Z,90.60
2022-08-31T17:20:18.285Z,90.60
2022-08-31T17:22:49.857Z,90.20
2022-08-31T17:25:20.072Z,90.30
2022-08-31T17:27:51.223Z,91.10
2022-08-31T17:30:22.230Z,92.10
2022-08-31T17:32:52.217Z,90.80
2022-08-31T17:35:25.497Z,90.70
2022-08-31T17:37:56.681Z,90.90
2022-08-31T17:40:29.268Z,91.20
2022-08-31T17:43:00.530Z,92.50
2022-08-31T17:45:39.891Z,91.00
2022-08-31T17:48:08.996Z,92.40
2022-08-31T17:50:42.888Z,90.90
2022-08-31T17:53:12.744Z,90.50
2022-08-31T17:55:45.867Z,90.30
2022-08-31T17:58:15.688Z,91.80
2022-08-31T18:00:44.139Z,90.30
2022-08-31T18:03:14.817Z,91.80
2022-08-31T18:05:51.510Z,90.20
2022-08-31T18:08:32.183Z,90.00
2022-08-31T18:11:03.742Z,91.50
2022-08-31T18:13:50.532Z,90.40
2022-08-31T18:16:24.175Z,91.50
2022-08-31T18:18:54.950Z,90.40
2022-08-31T18:21:26.182Z,90.80
2022-08-31T18:23:58.245Z,90.30
2022-08-31T18:26:33.595Z,90.20
2022-08-31T18:29:06.301Z,90.20
2022-08-31T18:31:37.754Z,90.70
2022-08-31T18:34:10.711Z,90.60
2022-08-31T18:36:41.466Z,90.80
2022-08-31T18:39:25.976Z,91.50
2022-08-31T18:42:25.309Z,91.90
2022-08-31T18:45:13.962Z,91.30
2022-08-31T18:47:42.010Z,91.20
2022-08-31T18:50:14.711Z,92.60
2022-08-31T18:52:55.685Z,91.80
2022-08-31T18:55:27.328Z,91.90
2022-08-31T18:57:55.322Z,91.90
2022-08-31T19:00:24.685Z,92.50
2022-08-31T19:02:52.601Z,93.40
2022-08-31T19:05:20.254Z,90.50
2022-08-31T19:07:49.050Z,90.50
2022-08-31T19:10:19.466Z,90.70
2022-08-31T19:12:49.342Z,92.80
2022-08-31T19:15:19.552Z,93.10
2022-08-31T19:17:55.703Z,92.90
2022-08-31T19:20:23.364Z,93.60
2022-08-31T19:22:50.978Z,93.30
2022-08-31T19:25:26.917Z,92.10
2022-08-31T19:27:55.819Z,92.80
2022-08-31T19:30:28.435Z,92.70
2022-08-31T19:33:00.467Z,93.00
2022-08-31T19:35:27.798Z,94.10
2022-08-31T19:37:56.499Z,93.70
2022-08-31T19:40:36.130Z,92.80
2022-08-31T19:45:56.510Z,95.10
2022-08-31T19:48:24.434Z,95.80
2022-08-31T19:50:52.632Z,96.30
2022-08-31T19:53:21.987Z,97.50
2022-08-31T19:55:53.569Z,99.50
2022-08-31T19:58:25.807Z,98.40
2022-08-31T20:01:03.450Z,99.90
2022-08-31T20:03:34.537Z,99.90
2022-08-31T20:06:06.687Z,99.90
2022-08-31T20:08:35.477Z,99.90
2022-08-31T20:11:06.173Z,99.90
2022-08-31T20:13:38.926Z,99.90
2022-08-31T20:16:12.027Z,99.90
2022-08-31T20:18:48.788Z,99.90
2022-08-31T20:21:20.166Z,99.90
2022-08-31T20:23:49.650Z,99.90
2022-08-31T20:26:20.015Z,99.90
2022-08-31T20:28:48.641Z,99.90
2022-08-31T20:31:20.649Z,99.90
2022-08-31T20:33:48.304Z,99.90
2022-08-31T20:36:19.499Z,99.90
2022-08-31T20:38:48.416Z,99.90
2022-08-31T20:41:16.355Z,99.90
2022-08-31T20:43:46.128Z,99.90
2022-08-31T20:46:33.519Z,99.90
2022-08-31T20:49:16.807Z,99.90
2022-08-31T20:51:44.750Z,99.90
2022-08-31T20:54:12.959Z,99.90
2022-08-31T20:56:43.698Z,99.90
2022-08-31T20:59:12.655Z,99.90
2022-08-31T21:01:42.479Z,99.90
2022-08-31T21:04:12.847Z,99.90
2022-08-31T21:06:40.404Z,99.90
2022-08-31T21:09:10.477Z,99.90
2022-08-31T21:11:40.982Z,99.90
2022-08-31T21:14:11.928Z,99.90
2022-08-31T21:16:44.044Z,99.90
2022-08-31T21:19:16.830Z,99.90
2022-08-31T21:21:47.625Z,99.90
2022-08-31T21:24:19.110Z,99.90
2022-08-31T21:26:47.201Z,99.90
2022-08-31T21:29:21.782Z,99.90
2022-08-31T21:31:56.959Z,99.90
2022-08-31T21:34:27.509Z,99.90
2022-08-31T21:36:55.350Z,99.90
2022-08-31T21:39:25.452Z,99.90
2022-08-31T21:41:56.208Z,99.90
2022-08-31T21:44:24.586Z,99.90
2022-08-31T21:46:55.397Z,99.90
2022-08-31T21:49:22.903Z,99.90
2022-08-31T21:51:53.945Z,99.90
2022-08-31T21:54:27.449Z,99.90
2022-08-31T21:57:00.926Z,99.90
2022-08-31T21:59:32.740Z,99.90
2022-08-31T22:02:06.652Z,99.90
2022-08-31T22:04:39.273Z,99.90
2022-08-31T22:07:09.441Z,99.90
2022-08-31T22:09:37.633Z,99.90
2022-08-31T22:12:07.513Z,99.90
2022-08-31T22:14:38.112Z,99.90
2022-08-31T22:17:07.183Z,99.90
2022-08-31T22:19:38.997Z,99.90
2022-08-31T22:22:12.168Z,99.90
2022-08-31T22:24:40.441Z,99.90
2022-08-31T22:27:11.910Z,99.90
2022-08-31T22:29:45.124Z,99.90
2022-08-31T22:32:21.101Z,99.90
2022-08-31T22:34:48.914Z,99.90
2022-08-31T22:37:16.612Z,99.90
2022-08-31T22:39:44.122Z,99.90
2022-08-31T22:42:12.204Z,99.90
2022-08-31T22:44:43.755Z,99.90
2022-08-31T22:47:11.843Z,99.90
2022-08-31T22:49:39.379Z,99.90
2022-08-31T22:52:07.384Z,99.90
2022-08-31T22:54:35.681Z,99.90
2022-08-31T22:57:03.400Z,99.90
2022-08-31T22:59:30.836Z,99.90
2022-08-31T23:02:06.265Z,99.90
2022-08-31T23:04:35.279Z,99.90
2022-08-31T23:07:04.438Z,99.90
2022-08-31T23:09:33.916Z,99.90
2022-08-31T23:12:03.490Z,99.90
2022-08-31T23:14:32.699Z,99.90
2022-08-31T23:17:08.494Z,99.90
2022-08-31T23:19:40.467Z,99.90
2022-08-31T23:22:11.057Z,99.90
2022-08-31T23:24:46.376Z,99.90
2022-08-31T23:27:17.794Z,99.90
2022-08-31T23:29:48.782Z,99.90
2022-08-31T23:32:22.255Z,99.90
2022-08-31T23:34:51.216Z,99.90
2022-08-31T23:37:19.366Z,99.90
2022-08-31T23:39:47.194Z,99.90
2022-08-31T23:42:16.665Z,99.90
2022-08-31T23:44:46.625Z,99.90
2022-08-31T23:47:18.884Z,99.90
2022-08-31T23:49:47.181Z,99.90
2022-08-31T23:52:21.309Z,99.90
2022-08-31T23:54:52.386Z,99.90
2022-08-31T23:57:31.538Z,99.90
